createdAt,value
2017-04-20T01:36:06.544Z,75.76
2017-04-20T01:36:55.048Z,75.81
2017-04-20T01:37:43.500Z,76.04
2017-04-20T01:38:31.816Z,76
2017-04-20T01:39:20.801Z,75.81
2017-04-20T01:40:09.221Z,76.04
2017-04-20T01:40:58.047Z,75.71
2017-04-20T01:41:46.874Z,75.85
2017-04-20T01:42:35.331Z,75.95
2017-04-20T01:43:23.627Z,76.51
2017-04-20T01:44:12.590Z,76.23
2017-04-20T01:45:01.030Z,76.42
2017-04-20T01:45:49.743Z,76.23
2017-04-20T01:46:38.945Z,76.57
2017-04-20T01:47:27.564Z,76.51
2017-04-20T01:48:16.364Z,76.66
2017-04-20T01:49:04.889Z,76.85
2017-04-20T01:49:53.959Z,77.13
2017-04-20T01:50:42.959Z,76.85
2017-04-20T01:51:31.557Z,76.85
2017-04-20T01:55:26.920Z,76.85
2017-04-20T01:56:15.267Z,77.42
2017-04-20T01:57:03.902Z,77.51
2017-04-20T01:57:52.467Z,77.13
2017-04-20T01:58:41.213Z,77.42
2017-04-20T01:59:30.082Z,77.32
2017-04-20T02:00:18.418Z,77.42
2017-04-20T02:01:06.986Z,76.66
2017-04-20T02:01:55.970Z,76.95
2017-04-20T02:02:44.414Z,77.04
2017-04-20T02:03:33.391Z,76.66
2017-04-20T02:04:21.823Z,76.66
2017-04-20T02:05:12.796Z,77.42
2017-04-20T02:52:58.993Z,78.83
2017-04-20T02:58:10.406Z,78.74
2017-04-20T02:58:59.374Z,78.83
2017-04-20T02:59:47.930Z,78.92
2017-04-20T03:00:36.219Z,79.11
2017-04-20T03:01:24.890Z,78.92
2017-04-20T03:02:13.419Z,78.83
2017-04-20T03:03:02.475Z,79.3
2017-04-20T03:03:51.028Z,79.02
2017-04-20T03:04:39.474Z,78.83
2017-04-20T03:05:27.778Z,79.11
2017-04-20T03:06:16.676Z,78.92
2017-04-20T03:07:05.411Z,79.11
2017-04-20T03:07:54.064Z,78.92
2017-04-20T03:08:42.915Z,78.83
2017-04-20T03:09:31.168Z,78.64
2017-04-20T03:10:20.000Z,79.11
2017-04-20T03:11:08.821Z,78.92
2017-04-20T03:11:57.108Z,79.11
2017-04-20T03:12:45.977Z,79.3
2017-04-20T03:13:34.814Z,78.74
2017-04-20T03:14:23.756Z,79.11
2017-04-20T03:15:12.358Z,79.11
2017-04-20T03:16:00.905Z,79.21
2017-04-20T03:16:49.189Z,79.11
2017-04-20T03:17:38.057Z,79.11
2017-04-20T03:18:26.915Z,78.74
2017-04-20T03:19:15.496Z,79.21
2017-04-20T03:20:04.570Z,79.02
2017-04-20T03:20:52.685Z,79.11
2017-04-20T03:21:42.697Z,79.11
2017-04-20T03:22:30.528Z,78.64
2017-04-20T03:23:18.995Z,78.74
2017-04-20T03:24:08.170Z,79.11
2017-04-20T03:24:57.064Z,78.64
2017-04-20T03:25:46.017Z,78.92
2017-04-20T03:26:34.958Z,78.55
2017-04-20T03:27:23.335Z,79.11
2017-04-20T03:28:12.266Z,79.21
2017-04-20T03:29:01.192Z,79.3
2017-04-20T03:29:49.524Z,79.3
2017-04-20T03:30:37.996Z,79.3
2017-04-20T03:31:27.832Z,78.83
2017-04-20T03:32:15.440Z,78.83
2017-04-20T03:33:06.529Z,78.64
2017-04-20T03:33:55.593Z,79.11
2017-04-20T03:34:44.619Z,78.36
2017-04-20T03:39:03.942Z,79.21
2017-04-20T03:39:53.082Z,78.92
2017-04-20T03:40:41.834Z,78.83
2017-04-20T03:41:30.750Z,79.3
2017-04-20T03:42:21.652Z,79.3
2017-04-20T03:43:10.342Z,78.74
2017-04-20T03:43:59.041Z,79.02
2017-04-20T03:44:48.102Z,78.92
2017-04-20T03:45:34.292Z,78.55
2017-04-20T03:46:23.141Z,78.74
2017-04-20T03:47:11.754Z,78.83
2017-04-20T03:47:59.022Z,78.83
2017-04-20T03:48:39.316Z,78.83
2017-04-20T03:49:19.900Z,78.92
2017-04-20T03:50:01.094Z,78.92
2017-04-20T03:50:41.468Z,79.4
2017-04-20T03:51:21.863Z,79.11
2017-04-20T03:52:02.275Z,79.49
2017-04-20T03:55:52.656Z,79.49
2017-04-20T03:56:41.148Z,79.78
2017-04-20T03:59:02.817Z,79.68
2017-04-20T04:02:26.013Z,79.87
2017-04-20T04:03:14.523Z,79.59
2017-04-20T04:04:03.156Z,79.68
2017-04-20T04:04:52.379Z,79.97
2017-04-20T04:05:45.563Z,79.87
2017-04-20T04:06:34.436Z,79.97
2017-04-20T04:07:22.734Z,79.97
2017-04-20T04:08:11.950Z,80.15
2017-04-20T04:09:00.400Z,80.15
2017-04-20T04:09:48.517Z,80.44
2017-04-20T04:10:37.538Z,80.63
2017-04-20T04:11:26.045Z,80.58
2017-04-20T07:18:06.045Z,74.47
2017-04-20T07:20:00.107Z,73.9
2017-04-20T07:22:21.857Z,73.42
2017-04-20T07:23:10.190Z,72.47
2017-04-20T08:25:55.044Z,25.7
2017-04-20T08:26:36.978Z,25.7
2017-04-20T08:27:17.412Z,25.31
2017-04-20T08:27:57.820Z,24.84
2017-04-20T08:28:38.221Z,24.06
2017-04-20T08:29:18.654Z,23.88
2017-04-20T08:29:59.065Z,23.39
2017-04-20T08:30:39.501Z,22.31
2017-04-20T08:31:19.924Z,21.15
2017-04-20T08:32:00.344Z,20.77
2017-04-20T08:32:40.718Z,20.67
2017-04-20T08:33:21.180Z,20.58
2017-04-20T08:34:01.595Z,20.48
2017-04-20T08:34:42.055Z,20.1
2017-04-20T08:35:22.404Z,19.62
2017-04-20T08:36:02.863Z,19.13
2017-04-20T08:36:43.316Z,18.85
2017-04-20T08:37:23.684Z,17.87
2017-04-20T08:38:04.178Z,17.09
2017-04-20T08:38:44.566Z,15.92
2017-04-20T08:39:24.959Z,16.3
2017-04-20T08:40:05.342Z,16.49
2017-04-20T08:40:45.773Z,16.31
2017-04-20T08:41:26.223Z,14.84
2017-04-20T08:42:06.622Z,14.15
2017-04-20T08:42:47.005Z,14.44
2017-04-20T08:43:27.402Z,14.05
2017-04-20T08:44:07.857Z,14.05
2017-04-20T08:44:48.250Z,14.25
2017-04-20T08:45:28.673Z,14.06
2017-04-20T08:46:09.090Z,14.16
2017-04-20T08:46:49.519Z,14.06
2017-04-20T08:47:31.466Z,13.97
2017-04-20T08:48:11.848Z,14.26
2017-04-20T08:48:52.283Z,13.97
2017-04-20T08:49:32.716Z,14.07
2017-04-20T08:50:13.142Z,13.88
2017-04-20T08:50:53.533Z,13.88
2017-04-20T08:51:33.994Z,14.08
2017-04-20T08:52:14.436Z,14.08
2017-04-20T08:52:54.875Z,14.08
2017-04-20T08:53:35.307Z,14.09
2017-04-20T08:54:15.695Z,13.7
2017-04-20T08:54:56.093Z,13.6
2017-04-20T08:55:36.537Z,13.31
2017-04-20T08:56:16.978Z,12.52
2017-04-20T08:56:57.346Z,12.9
2017-04-20T08:57:37.783Z,12.4
2017-04-20T08:58:18.167Z,12.97
2017-04-20T08:58:58.593Z,11.99
2017-04-20T08:59:39.047Z,11.4
2017-04-20T09:00:19.457Z,11.4
2017-04-20T09:00:59.879Z,11.38
2017-04-20T09:01:40.281Z,12.05
2017-04-20T09:02:20.679Z,12.71
2017-04-20T09:03:01.101Z,13.2
2017-04-20T09:03:41.513Z,13.48
2017-04-20T09:04:21.973Z,13.3
2017-04-20T09:05:02.353Z,13.21
2017-04-20T09:05:42.769Z,12.82
2017-04-20T09:06:23.173Z,12.15
2017-04-20T09:07:03.605Z,12.06
2017-04-20T09:07:44.070Z,12.07
2017-04-20T09:08:24.475Z,12.08
2017-04-20T09:09:04.921Z,11.8
2017-04-20T09:09:45.327Z,11.61
2017-04-20T09:10:25.728Z,11.04
2017-04-20T09:11:06.152Z,10.55
2017-04-20T09:11:46.545Z,10.45
2017-04-20T09:12:27.002Z,10.35
2017-04-20T09:13:07.438Z,10.73
2017-04-20T09:13:47.902Z,10.93
2017-04-20T09:14:28.331Z,11.03
2017-04-20T09:15:08.753Z,10.84
2017-04-20T09:15:49.304Z,10.64
2017-04-20T09:16:29.774Z,10.65
2017-04-20T09:17:10.162Z,10.37
2017-04-20T09:17:50.570Z,9.49
2017-04-20T09:18:30.994Z,8.91
2017-04-20T09:19:11.443Z,8.71
2017-04-20T09:19:51.793Z,8.72
2017-04-20T09:20:32.316Z,8.52
2017-04-20T09:21:12.727Z,8.22
2017-04-20T09:21:53.125Z,8.22
2017-04-20T09:22:33.570Z,8.02
2017-04-20T09:23:13.962Z,7.63
2017-04-20T09:23:54.393Z,7.82
2017-04-20T09:24:34.876Z,7.34
2017-04-20T09:25:15.307Z,7.53
2017-04-20T09:25:55.706Z,7.24
2017-04-20T09:26:36.081Z,7.04
2017-04-20T09:27:16.532Z,6.95
2017-04-20T09:27:56.931Z,7.04
2017-04-20T09:28:37.382Z,6.95
2017-04-20T09:29:17.797Z,7.15
2017-04-20T09:29:58.186Z,7.54
2017-04-20T09:30:38.645Z,7.54
2017-04-20T09:31:19.041Z,7.45
2017-04-20T09:31:59.488Z,6.76
2017-04-20T09:32:39.882Z,6.87
2017-04-20T09:33:20.327Z,6.77
2017-04-20T09:34:00.730Z,6.48
2017-04-20T09:34:41.171Z,6.77
2017-04-20T09:35:21.555Z,6.08
2017-04-20T09:36:01.967Z,5.49
2017-04-20T09:36:42.472Z,5
2017-04-20T09:37:22.899Z,5.39
2017-04-20T09:38:03.346Z,5.29
2017-04-20T09:38:43.775Z,5.49
2017-04-20T09:39:24.209Z,5.68
2017-04-20T09:40:04.632Z,5.58
2017-04-20T09:40:45.054Z,5.68
2017-04-20T09:41:25.452Z,5.79
2017-04-20T09:42:05.941Z,5.98
2017-04-20T09:42:46.289Z,5.59
2017-04-20T09:43:26.758Z,5.98
2017-04-20T09:44:07.155Z,5.69
2017-04-20T09:44:47.566Z,5.49
2017-04-20T09:45:27.988Z,5.2
2017-04-20T09:46:08.394Z,5.2
2017-04-20T09:46:48.817Z,5.1
2017-04-20T09:47:29.252Z,5.6
2017-04-20T09:48:09.680Z,4.81
2017-04-20T09:48:50.134Z,4.91
2017-04-20T09:49:30.588Z,4.81
2017-04-20T09:50:10.996Z,4.52
2017-04-20T09:50:51.402Z,4.52
2017-04-20T09:51:31.844Z,4.52
2017-04-20T09:52:12.267Z,4.61
2017-04-20T09:52:52.712Z,4.51
2017-04-20T09:53:33.112Z,4.71
2017-04-20T09:54:13.561Z,4.91
2017-04-20T09:54:54.052Z,4.52
2017-04-20T09:56:47.881Z,3.83
2017-04-20T09:57:28.283Z,4.42
2017-04-20T09:58:08.731Z,4.22
2017-04-20T09:58:49.162Z,4.61
2017-04-20T09:59:29.586Z,4.61
2017-04-20T10:00:09.992Z,5.01
2017-04-20T10:00:50.429Z,4.91
2017-04-20T10:01:30.839Z,4.52
2017-04-20T10:02:11.251Z,4.33
2017-04-20T10:02:51.693Z,4.03
2017-04-20T10:03:32.135Z,3.93
2017-04-20T10:04:12.558Z,3.74
2017-04-20T10:06:05.661Z,3.84
2017-04-20T10:06:45.817Z,3.44
2017-04-20T10:07:26.237Z,3.64
2017-04-20T10:08:06.771Z,3.84
2017-04-20T10:08:47.145Z,3.84
2017-04-20T10:09:27.572Z,3.64
2017-04-20T10:10:07.981Z,3.65
2017-04-20T10:10:48.393Z,3.75
2017-04-20T10:11:28.826Z,3.55
2017-04-20T10:12:09.278Z,2.86
2017-04-20T10:12:49.678Z,2.47
2017-04-20T10:13:30.175Z,2.56
2017-04-20T10:14:10.587Z,2.37
2017-04-20T10:14:51.003Z,2.46
2017-04-20T10:15:31.432Z,2.46
2017-04-20T10:16:11.862Z,2.85
2017-04-20T10:16:52.302Z,3.04
2017-04-20T10:17:32.686Z,3.72
2017-04-20T10:18:13.206Z,4.01
2017-04-20T10:18:53.701Z,4.59
2017-04-20T10:19:34.088Z,5.27
2017-04-20T10:20:14.532Z,5.96
2017-04-20T10:20:54.971Z,5.57
2017-04-20T10:21:35.390Z,4.99
2017-04-20T10:22:15.847Z,4.6
2017-04-20T10:22:56.837Z,4.5
2017-04-20T10:23:37.289Z,4.6
2017-04-20T10:24:17.781Z,4.8
2017-04-20T10:24:58.177Z,4.71
2017-04-20T10:25:38.568Z,4.61
2017-04-20T10:26:18.969Z,4.71
2017-04-20T10:26:59.463Z,4.22
2017-04-20T10:27:39.842Z,3.93
2017-04-20T10:28:20.269Z,4.13
2017-04-20T10:29:00.672Z,4.03
2017-04-20T10:29:41.123Z,3.64
2017-04-20T10:30:21.475Z,3.44
2017-04-20T10:31:01.919Z,3.64
2017-04-20T10:31:42.340Z,3.64
2017-04-20T10:32:22.776Z,3.15
2017-04-20T10:33:03.174Z,3.34
2017-04-20T10:33:43.602Z,3.15
2017-04-20T10:34:23.986Z,3.15
2017-04-20T10:35:04.532Z,3.25
2017-04-20T10:35:44.943Z,2.86
2017-04-20T10:36:25.356Z,2.95
2017-04-20T10:37:05.774Z,2.75
2017-04-20T10:37:46.210Z,2.36
2017-04-20T10:38:26.642Z,2.66
2017-04-20T10:39:07.078Z,3.05
2017-04-20T10:39:47.459Z,3.05
2017-04-20T10:40:27.957Z,2.46
2017-04-20T10:41:08.428Z,2.46
2017-04-20T10:41:48.825Z,2.76
2017-04-20T10:42:29.324Z,2.46
2017-04-20T10:43:09.724Z,2.86
2017-04-20T10:43:50.150Z,2.36
2017-04-20T10:44:30.568Z,2.56
2017-04-20T10:45:10.955Z,2.47
2017-04-20T10:45:51.377Z,2.47
2017-04-20T10:46:31.854Z,2.56
2017-04-20T10:47:12.325Z,2.37
2017-04-20T10:47:52.707Z,2.47
2017-04-20T10:48:33.164Z,2.57
2017-04-20T10:49:13.608Z,2.57
2017-04-20T10:49:54.003Z,2.57
2017-04-20T10:50:34.455Z,2.47
2017-04-20T10:51:14.877Z,2.47
2017-04-20T10:51:55.283Z,1.98
2017-04-20T10:52:35.725Z,1.88
2017-04-20T10:53:16.193Z,1.88
2017-04-20T10:53:56.573Z,1.68
2017-04-20T10:54:36.988Z,1.48
2017-04-20T10:55:17.474Z,1.48
2017-04-20T10:55:57.871Z,2.07
2017-04-20T10:56:38.312Z,2.36
2017-04-20T10:57:18.720Z,2.46
2017-04-20T10:57:59.186Z,2.56
2017-04-20T10:58:39.614Z,2.75
2017-04-20T10:59:20.080Z,2.85
2017-04-20T11:00:00.468Z,2.95
2017-04-20T11:00:40.927Z,3.05
2017-04-20T11:01:21.325Z,2.95
2017-04-20T11:02:01.759Z,3.16
2017-04-20T11:02:42.176Z,3.16
2017-04-20T11:03:22.613Z,2.96
2017-04-20T11:04:03.084Z,2.47
2017-04-20T11:04:43.525Z,1.97
2017-04-20T11:05:23.972Z,1.97
2017-04-20T11:06:04.406Z,2.08
2017-04-20T11:06:44.956Z,2.37
2017-04-20T11:07:25.411Z,2.56
2017-04-20T11:08:05.840Z,3.25
2017-04-20T11:08:46.197Z,3.06
2017-04-20T11:09:26.602Z,3.05
2017-04-20T11:10:07.014Z,3.64
2017-04-20T11:10:47.465Z,3.74
2017-04-20T11:11:27.908Z,4.03
2017-04-20T11:12:08.317Z,4.13
2017-04-20T11:12:48.810Z,4.82
2017-04-20T11:13:29.223Z,4.63
2017-04-20T11:14:09.626Z,4.53
2017-04-20T11:14:50.056Z,4.24
2017-04-20T11:15:30.447Z,3.94
2017-04-20T11:16:10.888Z,3.85
2017-04-20T11:16:51.296Z,3.94
2017-04-20T11:17:31.694Z,3.95
2017-04-20T11:18:12.149Z,3.85
2017-04-20T11:18:52.562Z,3.85
2017-04-20T11:19:33.001Z,3.66
2017-04-20T11:20:13.431Z,3.06
2017-04-20T11:20:53.876Z,2.57
2017-04-20T11:21:34.334Z,2.27
2017-04-20T11:22:14.734Z,2.57
2017-04-20T11:22:55.190Z,2.47
2017-04-20T11:23:35.578Z,2.57
2017-04-20T11:24:16.006Z,2.76
2017-04-20T11:24:56.428Z,3.26
2017-04-20T11:25:36.878Z,3.06
2017-04-20T11:26:17.266Z,3.06
2017-04-20T11:26:57.716Z,2.56
2017-04-20T11:27:38.138Z,2.47
2017-04-20T11:28:18.566Z,2.57
2017-04-20T11:28:59.000Z,2.27
2017-04-20T11:29:39.401Z,2.08
2017-04-20T11:30:19.807Z,1.88
2017-04-20T11:31:00.253Z,1.88
2017-04-20T11:31:40.676Z,1.78
2017-04-20T11:32:21.090Z,1.78
2017-04-20T11:33:01.520Z,1.88
2017-04-20T11:33:41.923Z,1.39
2017-04-20T11:34:22.339Z,0.99
2017-04-20T11:35:02.748Z,1.09
2017-04-20T11:35:43.190Z,1.19
2017-04-20T11:36:23.633Z,1.09
2017-04-20T11:37:04.038Z,0.69
2017-04-20T11:37:44.455Z,0.69
2017-04-20T11:38:25.294Z,1.18
2017-04-20T11:39:05.671Z,1.67
2017-04-20T11:39:46.119Z,2.36
2017-04-20T11:40:26.572Z,2.75
2017-04-20T11:41:06.970Z,2.84
2017-04-20T11:41:47.375Z,2.45
2017-04-20T11:42:27.839Z,2.84
2017-04-20T11:43:08.334Z,3.04
2017-04-20T11:43:48.704Z,3.14
2017-04-20T11:44:29.179Z,3.34
2017-04-20T11:45:10.006Z,3.14
2017-04-20T11:45:50.425Z,3.05
2017-04-20T11:46:30.822Z,3.25
2017-04-20T11:47:11.243Z,2.86
2017-04-20T11:47:51.712Z,2.26
2017-04-20T11:48:32.145Z,2.36
2017-04-20T11:49:12.556Z,1.97
2017-04-20T11:49:53.004Z,1.97
2017-04-20T11:50:33.439Z,1.87
2017-04-20T11:51:13.830Z,1.38
2017-04-20T11:51:54.261Z,1.48
2017-04-20T11:52:34.677Z,1.58
2017-04-20T11:53:15.126Z,1.48
2017-04-20T11:53:55.535Z,1.68
2017-04-20T11:54:35.973Z,1.09
2017-04-20T11:55:16.383Z,0.99
2017-04-20T11:55:56.871Z,0.69
2017-04-20T11:56:37.267Z,0.79
2017-04-20T11:57:17.730Z,0.4
2017-04-20T11:57:59.016Z,0.59
2017-04-20T11:58:39.450Z,0.49
2017-04-20T11:59:21.645Z,0.99
2017-04-20T12:00:02.777Z,1.18
2017-04-20T12:00:43.531Z,1.18
2017-04-20T12:01:23.961Z,1.19
2017-04-20T12:02:04.400Z,1.39
2017-04-20T12:02:44.836Z,1.39
2017-04-20T12:03:25.248Z,1.19
2017-04-20T12:04:05.650Z,1.09
2017-04-20T12:04:46.079Z,0.59
2017-04-20T12:06:38.786Z,0.49
2017-04-20T12:07:19.265Z,0.2
2017-04-20T12:07:59.695Z,0.29
2017-04-20T12:08:40.119Z,0
2017-04-20T12:09:20.549Z,0
2017-04-20T12:10:00.978Z,0
2017-04-20T12:10:41.416Z,0.1
2017-04-20T12:11:21.796Z,0.49
2017-04-20T12:12:02.248Z,0.59
2017-04-20T12:12:42.720Z,1.19
2017-04-20T12:13:23.162Z,1.48
2017-04-20T12:14:03.586Z,1.19
2017-04-20T12:14:44.063Z,1.29
2017-04-20T12:15:24.498Z,1.19
2017-04-20T12:16:04.981Z,1.39
2017-04-20T12:16:45.377Z,1.39
2017-04-20T12:17:25.822Z,0.99
2017-04-20T12:18:06.239Z,1.39
2017-04-20T12:18:46.652Z,1.58
2017-04-20T12:19:27.038Z,2.17
2017-04-20T12:20:07.479Z,2.27
2017-04-20T12:20:47.937Z,2.56
2017-04-20T12:21:28.375Z,2.56
2017-04-20T12:22:08.787Z,2.76
2017-04-20T12:22:49.228Z,3.05
2017-04-20T12:23:29.687Z,3.25
2017-04-20T12:24:10.106Z,3.15
2017-04-20T12:24:50.554Z,3.34
2017-04-20T12:25:30.975Z,3.05
2017-04-20T12:26:11.394Z,3.25
2017-04-20T12:26:51.868Z,3.34
2017-04-20T12:27:32.310Z,3.44
2017-04-20T12:28:12.734Z,3.34
2017-04-20T12:28:53.215Z,3.34
2017-04-20T12:29:33.595Z,3.34
2017-04-20T12:30:14.003Z,3.45
2017-04-20T12:30:54.415Z,2.76
2017-04-20T12:31:34.840Z,2.86
2017-04-20T12:32:15.280Z,2.66
2017-04-20T12:32:55.733Z,2.56
2017-04-20T12:33:36.131Z,2.66
2017-04-20T12:34:16.582Z,2.37
2017-04-20T12:34:56.954Z,2.56
2017-04-20T12:35:37.384Z,2.37
2017-04-20T12:36:17.801Z,1.97
2017-04-20T12:36:58.225Z,2.27
2017-04-20T12:37:38.649Z,1.38
2017-04-20T12:38:19.073Z,1.58
2017-04-20T12:38:59.507Z,1.48
2017-04-20T12:39:39.940Z,1.48
2017-04-20T12:40:20.550Z,1.58
2017-04-20T12:42:08.789Z,1.18
2017-04-20T12:42:49.322Z,0.79
2017-04-20T12:43:29.757Z,0.49
2017-04-20T12:44:10.137Z,0.79
2017-04-20T12:44:50.579Z,0.69
2017-04-20T12:45:31.034Z,0.79
2017-04-20T12:46:11.448Z,0.69
2017-04-20T12:46:51.941Z,0.79
2017-04-20T12:47:32.342Z,0.79
2017-04-20T12:48:12.753Z,0.79
2017-04-20T12:48:53.197Z,0.69
2017-04-20T12:49:33.661Z,0.99
2017-04-20T12:50:14.054Z,1.09
2017-04-20T12:50:54.485Z,0.89
2017-04-20T12:51:34.934Z,1.18
2017-04-20T12:52:15.357Z,1.58
2017-04-20T12:52:55.772Z,1.57
2017-04-20T12:53:36.191Z,2.17
2017-04-20T12:54:16.628Z,1.97
2017-04-20T12:54:57.026Z,1.97
2017-04-20T12:55:37.493Z,1.97
2017-04-20T12:56:17.946Z,1.97
2017-04-20T12:56:58.348Z,2.07
2017-04-20T12:57:38.788Z,1.87
2017-04-20T12:58:19.204Z,1.67
2017-04-20T12:58:59.657Z,1.57
2017-04-20T12:59:40.085Z,1.57
2017-04-20T13:00:20.549Z,1.67
2017-04-20T13:01:00.935Z,1.37
2017-04-20T13:01:41.368Z,1.46
2017-04-20T13:02:21.835Z,1.86
2017-04-20T13:03:02.290Z,2.53
2017-04-20T13:03:42.730Z,3.02
2017-04-20T13:04:23.201Z,3.79
2017-04-20T13:05:03.637Z,4.17
2017-04-20T13:05:44.001Z,4.56
2017-04-20T13:06:24.511Z,4.85
2017-04-20T13:07:04.989Z,5.04
2017-04-20T13:07:45.396Z,5.33
2017-04-20T13:08:25.823Z,5.9
2017-04-20T13:09:06.255Z,5.8
2017-04-20T13:09:46.686Z,5.99
2017-04-20T13:10:27.099Z,6.48
2017-04-20T13:11:07.471Z,6.86
2017-04-20T13:11:47.943Z,7.05
2017-04-20T13:12:28.344Z,7.24
2017-04-20T13:13:08.747Z,7.34
2017-04-20T13:13:49.148Z,7.14
2017-04-20T13:14:29.591Z,7.43
2017-04-20T13:15:10.017Z,7.42
2017-04-20T13:15:50.387Z,7.61
2017-04-20T13:16:30.841Z,8.09
2017-04-20T13:17:11.230Z,8.28
2017-04-20T13:17:51.794Z,8.09
2017-04-20T13:18:32.763Z,8.38
2017-04-20T13:19:13.189Z,8.28
2017-04-20T13:19:53.623Z,8.37
2017-04-20T13:20:34.032Z,8.47
2017-04-20T13:21:14.426Z,8.66
2017-04-20T13:21:54.833Z,8.86
2017-04-20T13:22:35.248Z,8.85
2017-04-20T13:23:15.630Z,8.75
2017-04-20T13:23:56.019Z,9.42
2017-04-20T13:24:36.414Z,9.52
2017-04-20T13:25:17.074Z,9.9
2017-04-20T13:25:57.593Z,10.09
2017-04-20T13:26:37.986Z,9.8
2017-04-20T13:27:18.421Z,10.38
2017-04-20T13:27:58.862Z,10.28
2017-04-20T13:28:39.306Z,10.28
2017-04-20T13:29:19.705Z,10.28
2017-04-20T13:30:00.963Z,10.08
2017-04-20T13:30:41.427Z,10.17
2017-04-20T13:31:21.889Z,10.47
2017-04-20T13:32:02.265Z,10.75
2017-04-20T13:32:42.670Z,10.75
2017-04-20T13:33:23.070Z,11.04
2017-04-20T13:34:04.503Z,11.42
2017-04-20T13:34:44.892Z,11.04
2017-04-20T13:35:25.324Z,11.23
2017-04-20T13:36:05.897Z,11.52
2017-04-20T13:36:47.235Z,11.71
2017-04-20T13:37:27.693Z,11.7
2017-04-20T13:38:08.147Z,11.99
2017-04-20T13:38:48.566Z,11.8
2017-04-20T13:39:28.948Z,11.9
2017-04-20T13:40:10.345Z,12.08
2017-04-20T13:40:50.781Z,12.08
2017-04-20T13:41:31.170Z,12.37
2017-04-20T13:42:11.590Z,12.08
2017-04-20T13:42:52.033Z,12.56
2017-04-20T13:43:33.258Z,12.55
2017-04-20T13:44:14.754Z,12.84
2017-04-20T13:44:55.937Z,13.04
2017-04-20T13:45:38.110Z,12.93
2017-04-20T13:46:18.537Z,13.42
2017-04-20T13:46:58.933Z,13.32
2017-04-20T13:47:40.278Z,13.32
2017-04-20T13:48:20.696Z,13.23
2017-04-20T13:49:01.038Z,13.61
2017-04-20T13:49:41.411Z,13.71
2017-04-20T13:50:21.851Z,13.32
2017-04-20T13:51:03.130Z,13.23
2017-04-20T13:51:43.530Z,13.32
2017-04-20T13:52:24.676Z,13.32
2017-04-20T13:53:05.081Z,13.32
2017-04-20T13:53:45.489Z,13.7
2017-04-20T13:54:25.910Z,13.8
2017-04-20T13:55:06.315Z,14.09
2017-04-20T13:55:47.995Z,13.7
2017-04-20T13:56:29.004Z,13.89
2017-04-20T13:57:09.922Z,13.71
2017-04-20T13:57:51.041Z,13.9
2017-04-20T13:58:31.443Z,13.9
2017-04-20T13:59:11.908Z,14.19
2017-04-20T13:59:52.323Z,14
2017-04-20T14:00:33.600Z,14.28
2017-04-20T14:01:14.043Z,13.81
2017-04-20T14:01:55.043Z,13.71
2017-04-20T14:02:35.482Z,13.9
2017-04-20T14:03:15.881Z,14
2017-04-20T14:03:56.323Z,13.91
2017-04-20T14:04:36.708Z,13.81
2017-04-20T14:05:18.027Z,13.81
2017-04-20T14:05:58.408Z,14
2017-04-20T14:07:58.427Z,13.71
2017-04-20T14:08:47.194Z,13.62
2017-04-20T14:09:36.135Z,13.71
2017-04-20T14:10:24.698Z,13.71
2017-04-20T14:11:12.752Z,13.53
2017-04-20T14:12:01.646Z,13.62
2017-04-20T14:12:49.815Z,13.71
2017-04-20T14:13:38.434Z,13.81
2017-04-20T14:14:27.012Z,13.71
2017-04-20T14:15:16.157Z,14
2017-04-20T14:16:04.613Z,13.81
2017-04-20T14:16:52.833Z,14.09
2017-04-20T14:17:41.673Z,14.28
2017-04-20T14:18:27.702Z,14.56
2017-04-20T14:19:08.842Z,14.75
2017-04-20T14:19:49.803Z,14.65
2017-04-20T14:20:30.834Z,14.46
2017-04-20T14:21:11.759Z,14.17
2017-04-20T14:21:52.307Z,14.27
2017-04-20T14:22:34.318Z,14.08
2017-04-20T14:23:14.729Z,14.17
2017-04-20T14:23:55.156Z,14.46
2017-04-20T14:24:35.596Z,14.47
2017-04-20T14:25:16.764Z,14.37
2017-04-20T14:25:57.207Z,14.28
2017-04-20T14:26:37.741Z,14.09
2017-04-20T14:27:18.806Z,13.89
2017-04-20T14:27:59.176Z,13.99
2017-04-20T14:28:40.421Z,13.8
2017-04-20T14:29:22.726Z,13.7
2017-04-20T14:30:03.152Z,14.09
2017-04-20T14:30:45.152Z,13.99
2017-04-20T14:31:26.241Z,13.7
2017-04-20T14:32:06.696Z,13.6
2017-04-20T14:32:47.098Z,13.8
2017-04-20T14:33:27.477Z,14.09
2017-04-20T14:34:08.002Z,13.7
2017-04-20T14:34:48.404Z,13.7
2017-04-20T14:35:30.553Z,13.89
2017-04-20T14:36:11.071Z,13.7
2017-04-20T14:36:51.430Z,13.98
2017-04-20T14:37:31.810Z,13.89
2017-04-20T14:38:12.277Z,13.89
2017-04-20T14:38:52.684Z,13.79
2017-04-20T14:39:35.648Z,14.08
2017-04-20T14:40:16.588Z,14.26
2017-04-20T14:40:56.971Z,14.55
2017-04-20T14:41:38.256Z,14.55
2017-04-20T14:42:21.140Z,14.84
2017-04-20T14:43:01.602Z,14.74
2017-04-20T14:43:41.991Z,14.74
2017-04-20T14:44:22.396Z,14.84
2017-04-20T14:45:03.565Z,14.74
2017-04-20T14:45:44.636Z,14.65
2017-04-20T14:46:25.071Z,14.65
2017-04-20T14:47:05.462Z,14.74
2017-04-20T14:47:45.891Z,14.65
2017-04-20T14:48:27.260Z,14.45
2017-04-20T14:49:07.670Z,14.74
2017-04-20T14:49:48.058Z,14.84
2017-04-20T14:50:29.313Z,14.65
2017-04-20T14:51:10.434Z,14.75
2017-04-20T14:51:50.803Z,14.75
2017-04-20T14:52:31.213Z,14.84
2017-04-20T14:53:13.343Z,15.04
2017-04-20T14:53:53.792Z,15.04
2017-04-20T14:54:36.929Z,14.94
2017-04-20T14:57:01.723Z,15.23
2017-04-20T14:57:50.220Z,15.04
2017-04-20T14:58:38.426Z,14.94
2017-04-20T14:59:26.982Z,15.13
2017-04-20T15:00:15.866Z,15.13
2017-04-20T15:01:04.376Z,15.04
2017-04-20T15:01:54.029Z,15.04
2017-04-20T15:02:42.615Z,15.04
2017-04-20T15:03:27.304Z,15.23
2017-04-20T15:05:46.438Z,15.04
2017-04-20T15:06:35.444Z,15.52
2017-04-20T15:07:23.531Z,15.61
2017-04-20T15:08:12.343Z,15.42
2017-04-20T15:09:01.301Z,15.61
2017-04-20T15:09:49.878Z,15.61
2017-04-20T15:10:37.891Z,15.52
2017-04-20T15:11:27.015Z,15.13
2017-04-20T15:12:15.679Z,15.04
2017-04-20T15:13:04.283Z,15.23
2017-04-20T15:13:52.722Z,15.23
2017-04-20T15:14:42.053Z,15.13
2017-04-20T15:15:30.774Z,15.42
2017-04-20T15:16:20.176Z,15.42
2017-04-20T15:17:08.628Z,15.41
2017-04-20T15:17:56.728Z,15.12
2017-04-20T15:18:46.034Z,15.12
2017-04-20T15:19:34.970Z,15.41
2017-04-20T15:20:23.903Z,15.7
2017-04-20T15:21:12.798Z,15.89
2017-04-20T15:22:01.354Z,15.7
2017-04-20T15:22:49.784Z,15.79
2017-04-20T15:23:40.261Z,16.08
2017-04-20T15:24:28.705Z,16.27
2017-04-20T15:25:19.001Z,16.36
2017-04-20T15:26:07.812Z,16.55
2017-04-20T15:26:53.291Z,16.45
2017-04-20T15:27:33.682Z,16.45
2017-04-20T15:28:14.132Z,16.55
2017-04-20T15:28:55.013Z,16.45
2017-04-20T15:29:35.418Z,16.73
2017-04-20T15:30:15.842Z,16.63
2017-04-20T15:30:57.027Z,16.73
2017-04-20T15:33:06.286Z,17.02
2017-04-20T15:33:54.980Z,16.82
2017-04-20T15:34:43.102Z,17.11
2017-04-20T15:35:32.398Z,17.02
2017-04-20T15:36:20.477Z,17.21
2017-04-20T15:37:09.064Z,16.92
2017-04-20T15:37:57.705Z,17.11
2017-04-20T15:38:46.646Z,17.21
2017-04-20T15:39:34.092Z,17.3
2017-04-20T15:40:16.535Z,17.49
2017-04-20T15:40:56.988Z,17.3
2017-04-20T15:41:38.312Z,17.11
2017-04-20T15:42:20.372Z,17.4
2017-04-20T15:43:00.789Z,17.1
2017-04-20T15:43:42.029Z,17.77
2017-04-20T15:44:23.402Z,17.96
2017-04-20T15:45:04.679Z,17.66
2017-04-20T15:45:45.895Z,17.76
2017-04-20T21:07:37.578Z,49.6
2017-04-20T21:08:26.186Z,49.69
2017-04-20T21:10:47.844Z,49.6
2017-04-20T21:11:36.437Z,49.41
2017-04-20T21:12:25.353Z,49.51
2017-04-20T21:13:14.515Z,49.22
2017-04-20T21:14:02.224Z,49.32
2017-04-20T21:14:51.425Z,48.94
2017-04-20T21:15:40.030Z,48.94
2017-04-20T21:16:29.077Z,49.03
2017-04-20T21:17:17.962Z,49.22
2017-04-20T21:18:06.794Z,48.94
2017-04-20T21:18:55.139Z,49.22
2017-04-20T21:19:43.964Z,49.03
2017-04-20T21:20:32.854Z,49.13
2017-04-20T21:21:20.919Z,49.03
2017-04-20T21:22:09.873Z,49.41
2017-04-20T21:22:58.804Z,49.88
2017-04-20T21:23:47.307Z,49.51
2017-04-20T21:24:35.598Z,49.48
2017-04-20T21:25:24.560Z,49.51
2017-04-20T21:26:13.671Z,50.05
2017-04-20T21:27:03.595Z,49.95
2017-04-20T21:27:52.333Z,49.57
2017-04-20T21:28:40.501Z,49.86
2017-04-20T21:29:30.026Z,50.15
2017-04-20T21:30:18.756Z,49.95
2017-04-20T21:31:07.428Z,50.52
2017-04-20T21:31:55.903Z,50.43
2017-04-20T21:32:44.862Z,50.24
2017-04-20T21:33:33.551Z,50.62
2017-04-20T21:35:57.159Z,50.71
2017-04-20T21:36:45.708Z,51.28
2017-04-20T21:37:34.519Z,51.18
2017-04-20T21:38:23.169Z,51.28
2017-04-20T21:39:11.645Z,51.18
2017-04-20T21:40:00.244Z,51.57
2017-04-20T21:40:49.144Z,51.66
2017-04-20T21:41:33.652Z,51.28
2017-04-20T21:42:22.654Z,51.18
2017-04-20T21:43:11.559Z,51.66
2017-04-20T21:44:00.191Z,51.57
2017-04-20T21:44:51.155Z,51.47
2017-04-20T21:45:39.431Z,51.28
2017-04-20T21:46:23.165Z,51.66
2017-04-20T21:47:04.426Z,51.76